Prelog HR Speed Test Log

Averages  Max Speed    
1 to 25 of 273** for City Prelog HR
Time
  
  Speed   Provider Size    User ConnectID   TestID  
11/9/19 2:04:07 pm 3.16 Mbps 395 kB/sHrvatski 2.6 MB854153368426 nIe85douE 
11/9/19 1:48:51 pm 14.69 Mbps 1.84 MB/sHrvatski 25.4 MB854153368426 -~QbiS3Ay 
11/9/19 1:33:23 pm 3.49 Mbps 437 kB/sHrvatski 2.4 MB854153368426 9paK0fRPv 
11/9/19 1:18:07 pm 3.45 Mbps 431 kB/sHrvatski 2.5 MB854153368426 8KjKHCIT8 
11/9/19 1:02:54 pm 2.37 Mbps 296 kB/sHrvatski 3.6 MB854153368426 lLYChnkqe 
11/9/19 12:47:25 pm 2.15 Mbps 268 kB/sHrvatski 5.4 MB854153368426 YDmfkrWt3 
11/9/19 12:31:53 pm 14.5 Mbps 1.81 MB/sHrvatski 21.5 MB854153368426 oyBK7D~Ie 
11/9/19 12:16:29 pm 9.05 Mbps 1.13 MB/sHrvatski 20.4 MB854153368426 dayI4pyDo 
11/9/19 12:00:51 pm 15.63 Mbps 1.95 MB/sHrvatski 20.9 MB854153368426 YI5f3X9_p 
11/9/19 11:45:30 am 14.21 Mbps 1.78 MB/sHrvatski 20.7 MB854153368426 ShqgLlnT7 
11/9/19 11:30:03 am 14.51 Mbps 1.81 MB/sHrvatski 21.5 MB854153368426 8c2w2kSiR 
11/9/19 11:14:37 am 15.55 Mbps 1.94 MB/sHrvatski 21 MB854153368426 gdxwgMMbx 
11/9/19 10:59:11 am 15.75 Mbps 1.97 MB/sHrvatski 21.4 MB854153368426 TbbuIG1oL 
11/9/19 10:43:50 am 15.42 Mbps 1.93 MB/sHrvatski 20.7 MB854153368426 Ujf9vY2_A 
11/9/19 10:28:24 am 7.19 Mbps 899 kB/sHrvatski 20.7 MB854153368426 9eWWakfhD 
11/9/19 10:12:46 am 15.78 Mbps 1.97 MB/sHrvatski 21.3 MB854153368426 4JolcgCeo 
11/9/19 9:57:23 am 15.73 Mbps 1.97 MB/sHrvatski 20.9 MB854153368426 3Ki4J0pdB 
11/9/19 9:42:01 am 13.98 Mbps 1.75 MB/sHrvatski 20.8 MB854153368426 NJK7hQbRh 
11/9/19 9:26:39 am 14.12 Mbps 1.77 MB/sHrvatski 20.9 MB854153368426 rTNN4AdLt 
11/9/19 9:11:16 am 14.13 Mbps 1.77 MB/sHrvatski 20.7 MB854153368426 Sj1oJTLw~ 
11/9/19 8:55:47 am 15.26 Mbps 1.91 MB/sHrvatski 20.9 MB854153368426 tdWUbkHTl 
11/9/19 8:40:24 am 11.55 Mbps 1.44 MB/sHrvatski 21.8 MB854153368426 SL-AlZrCC 
11/9/19 8:24:55 am 14.4 Mbps 1.8 MB/sHrvatski 25.4 MB854153368426 J4ajMHpSt 
11/9/19 8:09:24 am 11.53 Mbps 1.44 MB/sHrvatski 22.3 MB854153368426 AKaPXHiB3 
11/9/19 7:53:55 am 14.58 Mbps 1.82 MB/sHrvatski 22.9 MB854153368426 SNpc5LM0I 
  
** Partial Results: The most recent results have been displayed. Results over 50 Mbps are highlighted.
Calculated from graphed results above not entire query.
Displaying Internet Speed Test results for City Prelog HR

Minimum

Min 2.15 Mbps

Average

Avg 11.69 Mbps

Maximum

Max 15.78 Mbps

Minimum

Min: 2.15 Mbps |

Average

Avg: 11.69 Mbps |

Maximum

Max: 15.78 Mbps